sensor_id;sensor_type;location;lat;lon;timestamp;P1;durP1;ratioP1;P2;durP2;ratioP2
85051;SDS011;75382;46.706;12.340;2024-03-22T00:00:21;4.824999999999999;;;0.6875;;
85051;SDS011;75382;46.706;12.340;2024-03-22T00:01:21;3.2750000000000004;;;0.5625;;
85051;SDS011;75382;46.706;12.340;2024-03-22T00:02:21;3.4875;;;0.6125;;
85051;SDS011;75382;46.706;12.340;2024-03-22T00:03:21;3.5;;;0.625;;
85051;SDS011;75382;46.706;12.340;2024-03-22T00:04:21;8.362499999999999;;;0.7875000000000001;;
85051;SDS011;75382;46.706;12.340;2024-03-22T00:05:22;3.425;;;0.48750000000000004;;
85051;SDS011;75382;46.706;12.340;2024-03-22T00:06:21;4.1875;;;0.9624999999999999;;
85051;SDS011;75382;46.706;12.340;2024-03-22T00:07:21;4.25;;;0.8875;;
85051;SDS011;75382;46.706;12.340;2024-03-22T00:08:30;5.0;;;1.075;;
85051;SDS011;75382;46.706;12.340;2024-03-22T00:09:21;4.2875;;;0.8125;;
85051;SDS011;75382;46.706;12.340;2024-03-22T00:10:22;4.6;;;0.9125000000000001;;
85051;SDS011;75382;46.706;12.340;2024-03-22T00:11:21;3.4875;;;0.8250000000000001;;
85051;SDS011;75382;46.706;12.340;2024-03-22T00:12:21;4.025;;;0.8375;;
85051;SDS011;75382;46.706;12.340;2024-03-22T00:13:21;5.025;;;1.1500000000000001;;
85051;SDS011;75382;46.706;12.340;2024-03-22T00:14:21;3.4875;;;0.5249999999999999;;
85051;SDS011;75382;46.706;12.340;2024-03-22T00:15:21;4.237500000000001;;;0.9500000000000001;;
85051;SDS011;75382;46.706;12.340;2024-03-22T00:16:21;4.0625;;;0.6749999999999999;;
85051;SDS011;75382;46.706;12.340;2024-03-22T00:17:21;5.5625;;;0.8;;
85051;SDS011;75382;46.706;12.340;2024-03-22T00:18:21;3.7125;;;0.775;;
85051;SDS011;75382;46.706;12.340;2024-03-22T00:19:21;3.8875;;;0.8875;;
85051;SDS011;75382;46.706;12.340;2024-03-22T00:20:21;3.8375000000000004;;;0.8625;;
85051;SDS011;75382;46.706;12.340;2024-03-22T00:21:21;4.95;;;0.9;;
85051;SDS011;75382;46.706;12.340;2024-03-22T00:22:24;3.7;;;0.6749999999999999;;
85051;SDS011;75382;46.706;12.340;2024-03-22T00:23:21;4.55;;;0.9125;;
85051;SDS011;75382;46.706;12.340;2024-03-22T00:24:21;6.550000000000001;;;1.0;;
85051;SDS011;75382;46.706;12.340;2024-03-22T00:25:21;4.324999999999999;;;0.7;;
85051;SDS011;75382;46.706;12.340;2024-03-22T00:26:22;4.5875;;;0.9125;;
85051;SDS011;75382;46.706;12.340;2024-03-22T00:27:21;4.125;;;0.8625;;
85051;SDS011;75382;46.706;12.340;2024-03-22T00:28:21;4.1;;;0.8125;;
85051;SDS011;75382;46.706;12.340;2024-03-22T00:29:24;4.8625;;;0.8875;;
85051;SDS011;75382;46.706;12.340;2024-03-22T00:30:22;6.0;;;0.9;;
85051;SDS011;75382;46.706;12.340;2024-03-22T00:31:21;4.05;;;0.6125;;
85051;SDS011;75382;46.706;12.340;2024-03-22T00:32:21;3.7875;;;0.5;;
85051;SDS011;75382;46.706;12.340;2024-03-22T00:33:21;3.9749999999999996;;;0.7875000000000001;;
85051;SDS011;75382;46.706;12.340;2024-03-22T00:34:25;2.875;;;0.8375;;
85051;SDS011;75382;46.706;12.340;2024-03-22T00:35:21;7.15;;;0.8250000000000001;;
85051;SDS011;75382;46.706;12.340;2024-03-22T00:36:25;4.449999999999999;;;0.8;;
85051;SDS011;75382;46.706;12.340;2024-03-22T00:37:21;2.6375;;;0.6125;;
85051;SDS011;75382;46.706;12.340;2024-03-22T00:38:21;4.1125;;;0.6125;;
85051;SDS011;75382;46.706;12.340;2024-03-22T00:39:29;3.7125;;;0.7124999999999999;;
85051;SDS011;75382;46.706;12.340;2024-03-22T00:40:21;4.3875;;;0.875;;
85051;SDS011;75382;46.706;12.340;2024-03-22T00:41:21;3.3875;;;0.6875;;
85051;SDS011;75382;46.706;12.340;2024-03-22T00:42:21;3.425;;;0.5375;;
85051;SDS011;75382;46.706;12.340;2024-03-22T00:43:21;3.125;;;0.5;;
85051;SDS011;75382;46.706;12.340;2024-03-22T00:44:21;2.375;;;0.475;;
85051;SDS011;75382;46.706;12.340;2024-03-22T00:45:21;2.6375;;;0.47500000000000003;;
85051;SDS011;75382;46.706;12.340;2024-03-22T00:46:21;4.8;;;0.8374999999999999;;
85051;SDS011;75382;46.706;12.340;2024-03-22T00:47:21;2.4499999999999997;;;0.4625;;
85051;SDS011;75382;46.706;12.340;2024-03-22T00:48:21;5.1625;;;0.6125;;
85051;SDS011;75382;46.706;12.340;2024-03-22T00:49:21;3.8249999999999997;;;0.6375;;
85051;SDS011;75382;46.706;12.340;2024-03-22T00:50:21;4.7625;;;0.7375;;
85051;SDS011;75382;46.706;12.340;2024-03-22T00:51:29;5.4125;;;0.6125;;
85051;SDS011;75382;46.706;12.340;2024-03-22T00:52:25;3.2125000000000004;;;0.525;;
85051;SDS011;75382;46.706;12.340;2024-03-22T00:53:24;4.3125;;;0.7875000000000001;;
85051;SDS011;75382;46.706;12.340;2024-03-22T00:54:24;4.225;;;0.85;;
85051;SDS011;75382;46.706;12.340;2024-03-22T00:55:21;3.375;;;0.4;;
85051;SDS011;75382;46.706;12.340;2024-03-22T00:56:21;2.725;;;0.5375;;
85051;SDS011;75382;46.706;12.340;2024-03-22T00:57:21;3.8875;;;0.8;;
85051;SDS011;75382;46.706;12.340;2024-03-22T00:58:21;3.2625;;;0.475;;
85051;SDS011;75382;46.706;12.340;2024-03-22T00:59:21;3.9125;;;0.7;;
85051;SDS011;75382;46.706;12.340;2024-03-22T01:00:21;3.25;;;0.5874999999999999;;
85051;SDS011;75382;46.706;12.340;2024-03-22T01:01:21;3.9375;;;0.6625000000000001;;
85051;SDS011;75382;46.706;12.340;2024-03-22T01:02:22;4.425;;;0.8500000000000001;;
85051;SDS011;75382;46.706;12.340;2024-03-22T01:03:21;3.3625;;;0.7625;;
85051;SDS011;75382;46.706;12.340;2024-03-22T01:04:21;3.2625;;;0.6625;;
85051;SDS011;75382;46.706;12.340;2024-03-22T01:05:21;4.0875;;;0.7625;;
85051;SDS011;75382;46.706;12.340;2024-03-22T01:06:25;4.95;;;0.725;;
85051;SDS011;75382;46.706;12.340;2024-03-22T01:07:21;4.5375;;;1.0;;
85051;SDS011;75382;46.706;12.340;2024-03-22T01:08:30;4.4375;;;0.95;;
85051;SDS011;75382;46.706;12.340;2024-03-22T01:09:21;3.4;;;0.8125;;
85051;SDS011;75382;46.706;12.340;2024-03-22T01:10:21;4.5375;;;1.275;;
85051;SDS011;75382;46.706;12.340;2024-03-22T01:11:21;4.925;;;0.8999999999999999;;
85051;SDS011;75382;46.706;12.340;2024-03-22T01:12:23;4.0875;;;1.025;;
85051;SDS011;75382;46.706;12.340;2024-03-22T01:13:21;4.75;;;0.5125;;
85051;SDS011;75382;46.706;12.340;2024-03-22T01:14:23;3.3625;;;0.5625;;
85051;SDS011;75382;46.706;12.340;2024-03-22T01:15:21;3.9749999999999996;;;0.6625;;
85051;SDS011;75382;46.706;12.340;2024-03-22T01:16:21;3.0125;;;0.6625;;
85051;SDS011;75382;46.706;12.340;2024-03-22T01:17:21;5.074999999999999;;;0.8;;
85051;SDS011;75382;46.706;12.340;2024-03-22T01:18:21;4.425;;;0.9125;;
85051;SDS011;75382;46.706;12.340;2024-03-22T01:19:21;5.175;;;1.125;;
85051;SDS011;75382;46.706;12.340;2024-03-22T01:20:29;3.1125;;;0.5874999999999999;;
85051;SDS011;75382;46.706;12.340;2024-03-22T01:21:25;3.7375;;;0.6375;;
85051;SDS011;75382;46.706;12.340;2024-03-22T01:22:21;4.2875000000000005;;;1.0125;;
85051;SDS011;75382;46.706;12.340;2024-03-22T01:23:21;3.875;;;0.8250000000000001;;
85051;SDS011;75382;46.706;12.340;2024-03-22T01:24:21;2.825;;;0.55;;
85051;SDS011;75382;46.706;12.340;2024-03-22T01:25:21;3.9375;;;0.8;;
85051;SDS011;75382;46.706;12.340;2024-03-22T01:26:21;4.4125;;;0.8500000000000001;;
85051;SDS011;75382;46.706;12.340;2024-03-22T01:27:21;4.775;;;1.1124999999999998;;
85051;SDS011;75382;46.706;12.340;2024-03-22T01:28:22;4.7124999999999995;;;0.7124999999999999;;
85051;SDS011;75382;46.706;12.340;2024-03-22T01:29:21;4.7625;;;1.075;;
85051;SDS011;75382;46.706;12.340;2024-03-22T01:30:21;2.9875000000000003;;;0.5375000000000001;;
85051;SDS011;75382;46.706;12.340;2024-03-22T01:31:21;5.6625;;;0.875;;
85051;SDS011;75382;46.706;12.340;2024-03-22T01:32:21;4.225;;;0.9625;;
85051;SDS011;75382;46.706;12.340;2024-03-22T01:33:21;4.8375;;;0.9249999999999999;;
85051;SDS011;75382;46.706;12.340;2024-03-22T01:34:24;4.775;;;1.375;;
85051;SDS011;75382;46.706;12.340;2024-03-22T01:35:21;5.0375000000000005;;;0.6124999999999999;;
85051;SDS011;75382;46.706;12.340;2024-03-22T01:36:21;5.2125;;;1.2875;;
85051;SDS011;75382;46.706;12.340;2024-03-22T01:37:21;3.55;;;0.5625;;
85051;SDS011;75382;46.706;12.340;2024-03-22T01:38:21;5.1125;;;1.0375;;
85051;SDS011;75382;46.706;12.340;2024-03-22T01:39:21;5.5;;;0.8;;
85051;SDS011;75382;46.706;12.340;2024-03-22T01:40:21;7.075;;;0.6625;;
85051;SDS011;75382;46.706;12.340;2024-03-22T01:41:21;5.0375;;;0.6625;;
85051;SDS011;75382;46.706;12.340;2024-03-22T01:42:21;4.262499999999999;;;0.95;;
85051;SDS011;75382;46.706;12.340;2024-03-22T01:43:21;3.5875;;;0.775;;
85051;SDS011;75382;46.706;12.340;2024-03-22T01:44:25;3.5625;;;0.6875;;
85051;SDS011;75382;46.706;12.340;2024-03-22T01:45:22;3.4375;;;0.6499999999999999;;
85051;SDS011;75382;46.706;12.340;2024-03-22T01:46:21;4.125;;;0.95;;
85051;SDS011;75382;46.706;12.340;2024-03-22T01:47:21;3.2875000000000005;;;0.55;;
85051;SDS011;75382;46.706;12.340;2024-03-22T01:48:21;5.0125;;;0.8625;;
85051;SDS011;75382;46.706;12.340;2024-03-22T01:49:21;4.2125;;;0.6375;;
85051;SDS011;75382;46.706;12.340;2024-03-22T01:50:21;4.2875000000000005;;;0.8250000000000001;;
85051;SDS011;75382;46.706;12.340;2024-03-22T01:51:21;4.262499999999999;;;0.975;;
85051;SDS011;75382;46.706;12.340;2024-03-22T01:52:21;4.8875;;;0.8;;
85051;SDS011;75382;46.706;12.340;2024-03-22T01:53:22;5.25;;;0.9624999999999999;;
85051;SDS011;75382;46.706;12.340;2024-03-22T01:54:21;6.05;;;1.05;;
85051;SDS011;75382;46.706;12.340;2024-03-22T01:55:22;4.9125;;;1.25;;
85051;SDS011;75382;46.706;12.340;2024-03-22T01:56:21;4.7;;;1.0625;;
85051;SDS011;75382;46.706;12.340;2024-03-22T01:57:21;4.65;;;0.9;;
85051;SDS011;75382;46.706;12.340;2024-03-22T01:58:22;3.2125;;;0.6875;;
85051;SDS011;75382;46.706;12.340;2024-03-22T01:59:25;3.4624999999999995;;;0.7375;;
85051;SDS011;75382;46.706;12.340;2024-03-22T02:00:24;4.925000000000001;;;1.125;;
85051;SDS011;75382;46.706;12.340;2024-03-22T02:01:21;3.1875;;;0.6625;;
85051;SDS011;75382;46.706;12.340;2024-03-22T02:02:21;3.5375;;;0.8625;;
85051;SDS011;75382;46.706;12.340;2024-03-22T02:03:22;3.15;;;0.5874999999999999;;
85051;SDS011;75382;46.706;12.340;2024-03-22T02:04:21;5.85;;;1.05;;
85051;SDS011;75382;46.706;12.340;2024-03-22T02:05:22;3.7625;;;0.6499999999999999;;
85051;SDS011;75382;46.706;12.340;2024-03-22T02:06:21;8.4875;;;1.0875;;
85051;SDS011;75382;46.706;12.340;2024-03-22T02:07:27;4.699999999999999;;;0.8;;
85051;SDS011;75382;46.706;12.340;2024-03-22T02:08:21;4.15;;;0.775;;
85051;SDS011;75382;46.706;12.340;2024-03-22T02:09:21;3.1375;;;0.8;;
85051;SDS011;75382;46.706;12.340;2024-03-22T02:10:21;4.4375;;;0.8;;
85051;SDS011;75382;46.706;12.340;2024-03-22T02:11:21;4.475;;;0.8250000000000001;;
85051;SDS011;75382;46.706;12.340;2024-03-22T02:12:21;4.0625;;;0.8625;;
85051;SDS011;75382;46.706;12.340;2024-03-22T02:13:25;4.9625;;;0.7375;;
85051;SDS011;75382;46.706;12.340;2024-03-22T02:14:21;5.7375;;;1.0750000000000002;;
85051;SDS011;75382;46.706;12.340;2024-03-22T02:15:21;5.225;;;0.7375;;
85051;SDS011;75382;46.706;12.340;2024-03-22T02:16:21;4.3875;;;1.0750000000000002;;
85051;SDS011;75382;46.706;12.340;2024-03-22T02:17:21;4.675000000000001;;;0.7124999999999999;;
85051;SDS011;75382;46.706;12.340;2024-03-22T02:18:21;4.4;;;0.775;;
85051;SDS011;75382;46.706;12.340;2024-03-22T02:19:21;4.924999999999999;;;0.975;;
85051;SDS011;75382;46.706;12.340;2024-03-22T02:20:21;5.4;;;0.9375;;
85051;SDS011;75382;46.706;12.340;2024-03-22T02:21:24;4.075;;;0.75;;
85051;SDS011;75382;46.706;12.340;2024-03-22T02:22:21;3.8;;;0.7124999999999999;;
85051;SDS011;75382;46.706;12.340;2024-03-22T02:23:23;4.625;;;0.8999999999999999;;
85051;SDS011;75382;46.706;12.340;2024-03-22T02:24:21;4.0;;;0.7625;;
85051;SDS011;75382;46.706;12.340;2024-03-22T02:25:21;3.7624999999999997;;;0.7375;;
85051;SDS011;75382;46.706;12.340;2024-03-22T02:26:21;6.125;;;1.125;;
85051;SDS011;75382;46.706;12.340;2024-03-22T02:27:21;3.6;;;0.6875;;
85051;SDS011;75382;46.706;12.340;2024-03-22T02:28:21;4.65;;;0.9500000000000001;;
85051;SDS011;75382;46.706;12.340;2024-03-22T02:29:21;5.05;;;0.8875000000000001;;
85051;SDS011;75382;46.706;12.340;2024-03-22T02:30:24;3.875;;;0.75;;
85051;SDS011;75382;46.706;12.340;2024-03-22T02:31:21;4.1375;;;0.6624999999999999;;
85051;SDS011;75382;46.706;12.340;2024-03-22T02:32:21;5.9375;;;1.0;;
85051;SDS011;75382;46.706;12.340;2024-03-22T02:33:21;4.0;;;0.5875;;
85051;SDS011;75382;46.706;12.340;2024-03-22T02:34:21;4.7125;;;1.1;;
85051;SDS011;75382;46.706;12.340;2024-03-22T02:35:21;4.6;;;0.8375;;
85051;SDS011;75382;46.706;12.340;2024-03-22T02:36:21;5.5875;;;1.2;;
85051;SDS011;75382;46.706;12.340;2024-03-22T02:37:34;4.0625;;;0.75;;
85051;SDS011;75382;46.706;12.340;2024-03-22T02:38:21;5.5;;;0.975;;
85051;SDS011;75382;46.706;12.340;2024-03-22T02:39:21;3.4625;;;0.7124999999999999;;
85051;SDS011;75382;46.706;12.340;2024-03-22T02:40:21;4.725;;;0.875;;
85051;SDS011;75382;46.706;12.340;2024-03-22T02:41:21;4.4625;;;0.8625;;
85051;SDS011;75382;46.706;12.340;2024-03-22T02:42:29;4.2;;;0.8500000000000001;;
85051;SDS011;75382;46.706;12.340;2024-03-22T02:43:37;3.9250000000000003;;;0.6875;;
85051;SDS011;75382;46.706;12.340;2024-03-22T02:44:21;4.1;;;0.9750000000000001;;
85051;SDS011;75382;46.706;12.340;2024-03-22T02:45:21;3.9375;;;0.7124999999999999;;
85051;SDS011;75382;46.706;12.340;2024-03-22T02:46:21;5.3374999999999995;;;0.9875;;
85051;SDS011;75382;46.706;12.340;2024-03-22T02:47:21;6.3;;;1.2375;;
85051;SDS011;75382;46.706;12.340;2024-03-22T02:48:21;4.0875;;;0.5874999999999999;;
85051;SDS011;75382;46.706;12.340;2024-03-22T02:49:21;5.8375;;;1.25;;
85051;SDS011;75382;46.706;12.340;2024-03-22T02:50:21;5.2125;;;0.7125;;
85051;SDS011;75382;46.706;12.340;2024-03-22T02:51:21;4.975;;;0.9375;;
85051;SDS011;75382;46.706;12.340;2024-03-22T02:52:21;4.725;;;1.425;;
85051;SDS011;75382;46.706;12.340;2024-03-22T02:53:21;3.6875;;;0.7375;;
85051;SDS011;75382;46.706;12.340;2024-03-22T02:54:21;4.475;;;0.9875;;
85051;SDS011;75382;46.706;12.340;2024-03-22T02:55:21;5.450000000000001;;;1.0875;;
85051;SDS011;75382;46.706;12.340;2024-03-22T02:56:21;4.5625;;;1.1125;;
85051;SDS011;75382;46.706;12.340;2024-03-22T02:57:21;3.75;;;0.6875;;
85051;SDS011;75382;46.706;12.340;2024-03-22T02:58:21;6.6625;;;0.8625;;
85051;SDS011;75382;46.706;12.340;2024-03-22T02:59:21;4.525;;;0.8875000000000001;;
85051;SDS011;75382;46.706;12.340;2024-03-22T03:00:21;6.0875;;;1.05;;
85051;SDS011;75382;46.706;12.340;2024-03-22T03:01:21;5.0375;;;0.9125;;
85051;SDS011;75382;46.706;12.340;2024-03-22T03:02:22;5.1625000000000005;;;0.9125000000000001;;
85051;SDS011;75382;46.706;12.340;2024-03-22T03:03:21;6.387499999999999;;;1.325;;
85051;SDS011;75382;46.706;12.340;2024-03-22T03:04:22;4.8125;;;1.0;;
85051;SDS011;75382;46.706;12.340;2024-03-22T03:05:22;4.3;;;0.7625;;
85051;SDS011;75382;46.706;12.340;2024-03-22T03:06:21;4.3;;;0.8250000000000001;;
85051;SDS011;75382;46.706;12.340;2024-03-22T03:07:24;4.300000000000001;;;0.825;;
85051;SDS011;75382;46.706;12.340;2024-03-22T03:08:22;5.7250000000000005;;;1.0625;;
85051;SDS011;75382;46.706;12.340;2024-03-22T03:09:22;3.9124999999999996;;;0.925;;
85051;SDS011;75382;46.706;12.340;2024-03-22T03:10:21;5.125;;;0.75;;
85051;SDS011;75382;46.706;12.340;2024-03-22T03:11:21;4.1875;;;0.825;;
85051;SDS011;75382;46.706;12.340;2024-03-22T03:12:22;4.675000000000001;;;0.925;;
85051;SDS011;75382;46.706;12.340;2024-03-22T03:13:21;3.4375;;;0.675;;
85051;SDS011;75382;46.706;12.340;2024-03-22T03:14:22;4.612499999999999;;;1.0499999999999998;;
85051;SDS011;75382;46.706;12.340;2024-03-22T03:15:21;6.0125;;;0.925;;
85051;SDS011;75382;46.706;12.340;2024-03-22T03:16:22;5.15;;;0.6624999999999999;;
85051;SDS011;75382;46.706;12.340;2024-03-22T03:17:23;5.35;;;1.0625;;
85051;SDS011;75382;46.706;12.340;2024-03-22T03:18:21;4.375;;;1.0;;
85051;SDS011;75382;46.706;12.340;2024-03-22T03:19:29;4.612499999999999;;;1.375;;
85051;SDS011;75382;46.706;12.340;2024-03-22T03:20:22;3.7125;;;0.775;;
85051;SDS011;75382;46.706;12.340;2024-03-22T03:21:22;5.1;;;0.8500000000000001;;
85051;SDS011;75382;46.706;12.340;2024-03-22T03:22:22;4.387499999999999;;;0.8500000000000001;;
85051;SDS011;75382;46.706;12.340;2024-03-22T03:23:22;4.1375;;;0.725;;
85051;SDS011;75382;46.706;12.340;2024-03-22T03:24:22;4.6125;;;1.125;;
85051;SDS011;75382;46.706;12.340;2024-03-22T03:25:22;4.4;;;0.925;;
85051;SDS011;75382;46.706;12.340;2024-03-22T03:26:21;5.725;;;1.0375;;
85051;SDS011;75382;46.706;12.340;2024-03-22T03:27:22;5.7875;;;1.2000000000000002;;
85051;SDS011;75382;46.706;12.340;2024-03-22T03:28:22;4.4375;;;0.875;;
85051;SDS011;75382;46.706;12.340;2024-03-22T03:29:25;4.9;;;1.0625;;
85051;SDS011;75382;46.706;12.340;2024-03-22T03:30:22;5.6;;;1.175;;
85051;SDS011;75382;46.706;12.340;2024-03-22T03:31:22;4.6375;;;1.0125;;
85051;SDS011;75382;46.706;12.340;2024-03-22T03:32:22;3.9000000000000004;;;0.875;;
85051;SDS011;75382;46.706;12.340;2024-03-22T03:33:24;4.35;;;0.9625;;
85051;SDS011;75382;46.706;12.340;2024-03-22T03:34:22;4.95;;;1.0250000000000001;;
85051;SDS011;75382;46.706;12.340;2024-03-22T03:35:26;5.3125;;;1.05;;
85051;SDS011;75382;46.706;12.340;2024-03-22T03:36:22;5.6625000000000005;;;0.8125;;
85051;SDS011;75382;46.706;12.340;2024-03-22T03:37:22;5.2875;;;0.875;;
85051;SDS011;75382;46.706;12.340;2024-03-22T03:38:22;4.575;;;0.975;;
85051;SDS011;75382;46.706;12.340;2024-03-22T03:39:22;5.137499999999999;;;1.15;;
85051;SDS011;75382;46.706;12.340;2024-03-22T03:40:22;4.3625;;;0.8500000000000001;;
85051;SDS011;75382;46.706;12.340;2024-03-22T03:41:27;4.4875;;;0.8625;;
85051;SDS011;75382;46.706;12.340;2024-03-22T03:42:22;3.875;;;0.9375;;
85051;SDS011;75382;46.706;12.340;2024-03-22T03:43:22;4.575;;;0.8250000000000001;;
85051;SDS011;75382;46.706;12.340;2024-03-22T03:44:22;3.875;;;0.725;;
85051;SDS011;75382;46.706;12.340;2024-03-22T03:45:30;5.25;;;1.1;;
85051;SDS011;75382;46.706;12.340;2024-03-22T03:46:22;5.375;;;1.1875;;
85051;SDS011;75382;46.706;12.340;2024-03-22T03:47:22;7.175000000000001;;;1.05;;
85051;SDS011;75382;46.706;12.340;2024-03-22T03:48:22;6.05;;;1.2125000000000001;;
85051;SDS011;75382;46.706;12.340;2024-03-22T03:49:22;5.0;;;1.0750000000000002;;
85051;SDS011;75382;46.706;12.340;2024-03-22T03:50:22;5.0875;;;0.95;;
85051;SDS011;75382;46.706;12.340;2024-03-22T03:51:27;4.825;;;0.8625;;
85051;SDS011;75382;46.706;12.340;2024-03-22T03:52:22;7.2875;;;1.1124999999999998;;
85051;SDS011;75382;46.706;12.340;2024-03-22T03:53:22;5.25;;;0.8625;;
85051;SDS011;75382;46.706;12.340;2024-03-22T03:54:22;6.5875;;;0.9375;;
85051;SDS011;75382;46.706;12.340;2024-03-22T03:55:24;5.375;;;1.1;;
85051;SDS011;75382;46.706;12.340;2024-03-22T03:56:28;5.0;;;0.9875;;
85051;SDS011;75382;46.706;12.340;2024-03-22T03:57:27;7.7749999999999995;;;1.0625;;
85051;SDS011;75382;46.706;12.340;2024-03-22T03:58:22;4.4;;;0.9875;;
85051;SDS011;75382;46.706;12.340;2024-03-22T03:59:22;4.775;;;1.0750000000000002;;
85051;SDS011;75382;46.706;12.340;2024-03-22T04:00:22;12.45;;;1.5375;;
85051;SDS011;75382;46.706;12.340;2024-03-22T04:01:23;7.0875;;;1.125;;
85051;SDS011;75382;46.706;12.340;2024-03-22T04:02:25;4.45;;;1.15;;
85051;SDS011;75382;46.706;12.340;2024-03-22T04:03:25;6.575;;;1.0750000000000002;;
85051;SDS011;75382;46.706;12.340;2024-03-22T04:04:22;3.75;;;1.0125;;
85051;SDS011;75382;46.706;12.340;2024-03-22T04:05:22;6.050000000000001;;;1.375;;
85051;SDS011;75382;46.706;12.340;2024-03-22T04:06:22;5.4375;;;1.0625;;
85051;SDS011;75382;46.706;12.340;2024-03-22T04:07:22;4.2625;;;0.6875;;
85051;SDS011;75382;46.706;12.340;2024-03-22T04:08:22;4.0875;;;0.7;;
85051;SDS011;75382;46.706;12.340;2024-03-22T04:09:27;4.075;;;0.8625;;
85051;SDS011;75382;46.706;12.340;2024-03-22T04:10:22;5.25;;;0.9625;;
85051;SDS011;75382;46.706;12.340;2024-03-22T04:11:22;5.9625;;;1.0125;;
85051;SDS011;75382;46.706;12.340;2024-03-22T04:12:22;4.4125;;;0.8875000000000001;;
85051;SDS011;75382;46.706;12.340;2024-03-22T04:13:22;5.1;;;1.0875;;
85051;SDS011;75382;46.706;12.340;2024-03-22T04:14:22;4.675;;;0.825;;
85051;SDS011;75382;46.706;12.340;2024-03-22T04:15:22;4.3125;;;0.9874999999999999;;
85051;SDS011;75382;46.706;12.340;2024-03-22T04:16:22;5.35;;;1.4125;;
85051;SDS011;75382;46.706;12.340;2024-03-22T04:17:22;10.0625;;;1.8875;;
85051;SDS011;75382;46.706;12.340;2024-03-22T04:18:22;9.8875;;;1.525;;
85051;SDS011;75382;46.706;12.340;2024-03-22T04:19:27;5.5;;;1.4375;;
85051;SDS011;75382;46.706;12.340;2024-03-22T04:20:22;6.0125;;;1.5499999999999998;;
85051;SDS011;75382;46.706;12.340;2024-03-22T04:21:32;7.012499999999999;;;1.225;;
85051;SDS011;75382;46.706;12.340;2024-03-22T04:22:30;7.25;;;1.3624999999999998;;
85051;SDS011;75382;46.706;12.340;2024-03-22T04:23:22;7.0125;;;1.4125;;
85051;SDS011;75382;46.706;12.340;2024-03-22T04:24:22;7.125;;;1.7875;;
85051;SDS011;75382;46.706;12.340;2024-03-22T04:25:22;7.6;;;1.4;;
85051;SDS011;75382;46.706;12.340;2024-03-22T04:26:22;8.55;;;1.75;;
85051;SDS011;75382;46.706;12.340;2024-03-22T04:27:22;7.2125;;;1.7625000000000002;;
85051;SDS011;75382;46.706;12.340;2024-03-22T04:28:22;7.887499999999999;;;2.0;;
85051;SDS011;75382;46.706;12.340;2024-03-22T04:29:22;7.475;;;2.0374999999999996;;
85051;SDS011;75382;46.706;12.340;2024-03-22T04:30:22;9.1625;;;1.9249999999999998;;
85051;SDS011;75382;46.706;12.340;2024-03-22T04:31:22;13.175;;;2.5625;;
85051;SDS011;75382;46.706;12.340;2024-03-22T04:32:22;9.6875;;;2.6875;;
85051;SDS011;75382;46.706;12.340;2024-03-22T04:33:22;10.35;;;2.9625000000000004;;
85051;SDS011;75382;46.706;12.340;2024-03-22T04:34:22;11.8875;;;3.2249999999999996;;
85051;SDS011;75382;46.706;12.340;2024-03-22T04:35:22;9.087499999999999;;;2.8375;;
85051;SDS011;75382;46.706;12.340;2024-03-22T04:36:22;8.625;;;2.675;;
85051;SDS011;75382;46.706;12.340;2024-03-22T04:37:25;9.8625;;;2.925;;
85051;SDS011;75382;46.706;12.340;2024-03-22T04:38:22;12.3;;;3.6625;;
85051;SDS011;75382;46.706;12.340;2024-03-22T04:39:22;9.8375;;;3.325;;
85051;SDS011;75382;46.706;12.340;2024-03-22T04:40:22;12.024999999999999;;;2.5625;;
85051;SDS011;75382;46.706;12.340;2024-03-22T04:41:22;8.825;;;2.3375000000000004;;
85051;SDS011;75382;46.706;12.340;2024-03-22T04:42:22;11.375;;;2.1875;;
85051;SDS011;75382;46.706;12.340;2024-03-22T04:43:22;12.375;;;2.0125;;
85051;SDS011;75382;46.706;12.340;2024-03-22T04:44:22;9.024999999999999;;;2.75;;
85051;SDS011;75382;46.706;12.340;2024-03-22T04:45:22;8.6875;;;2.1625;;
85051;SDS011;75382;46.706;12.340;2024-03-22T04:46:22;10.5;;;2.2;;
85051;SDS011;75382;46.706;12.340;2024-03-22T04:47:21;14.524999999999999;;;2.3125;;
85051;SDS011;75382;46.706;12.340;2024-03-22T04:48:22;7.887499999999999;;;2.4375;;
85051;SDS011;75382;46.706;12.340;2024-03-22T04:49:22;11.75;;;2.8125;;
85051;SDS011;75382;46.706;12.340;2024-03-22T04:50:22;9.325000000000001;;;2.375;;
85051;SDS011;75382;46.706;12.340;2024-03-22T04:51:22;7.4625;;;2.4749999999999996;;
85051;SDS011;75382;46.706;12.340;2024-03-22T04:52:22;15.5875;;;4.4750000000000005;;
85051;SDS011;75382;46.706;12.340;2024-03-22T04:53:22;10.774999999999999;;;3.8125;;
85051;SDS011;75382;46.706;12.340;2024-03-22T04:54:28;10.462499999999999;;;3.1500000000000004;;
85051;SDS011;75382;46.706;12.340;2024-03-22T04:55:23;6.987500000000001;;;2.7124999999999995;;
85051;SDS011;75382;46.706;12.340;2024-03-22T04:56:22;8.525;;;2.225;;
85051;SDS011;75382;46.706;12.340;2024-03-22T04:57:22;6.575;;;2.25;;
85051;SDS011;75382;46.706;12.340;2024-03-22T04:58:22;7.925000000000001;;;2.3249999999999997;;
85051;SDS011;75382;46.706;12.340;2024-03-22T04:59:22;7.225;;;2.3;;
85051;SDS011;75382;46.706;12.340;2024-03-22T05:00:21;6.6625;;;1.9625;;
85051;SDS011;75382;46.706;12.340;2024-03-22T05:01:29;5.85;;;2.1;;
85051;SDS011;75382;46.706;12.340;2024-03-22T05:02:23;6.6125;;;1.5875;;
85051;SDS011;75382;46.706;12.340;2024-03-22T05:03:21;7.65;;;1.8;;
85051;SDS011;75382;46.706;12.340;2024-03-22T05:04:21;7.6875;;;1.8125;;
85051;SDS011;75382;46.706;12.340;2024-03-22T05:05:21;6.1625;;;1.6375;;
85051;SDS011;75382;46.706;12.340;2024-03-22T05:06:21;6.0249999999999995;;;1.5625;;
85051;SDS011;75382;46.706;12.340;2024-03-22T05:07:21;7.862500000000001;;;1.9124999999999999;;
85051;SDS011;75382;46.706;12.340;2024-03-22T05:08:21;6.8875;;;1.8375;;
85051;SDS011;75382;46.706;12.340;2024-03-22T05:09:21;8.6875;;;1.75;;
85051;SDS011;75382;46.706;12.340;2024-03-22T05:10:21;5.6625;;;1.5499999999999998;;
85051;SDS011;75382;46.706;12.340;2024-03-22T05:11:21;7.725;;;2.2125000000000004;;
85051;SDS011;75382;46.706;12.340;2024-03-22T05:12:21;6.5;;;1.875;;
85051;SDS011;75382;46.706;12.340;2024-03-22T05:13:21;6.925;;;2.4000000000000004;;
85051;SDS011;75382;46.706;12.340;2024-03-22T05:14:21;6.925;;;2.325;;
85051;SDS011;75382;46.706;12.340;2024-03-22T05:15:21;6.1;;;2.1;;
85051;SDS011;75382;46.706;12.340;2024-03-22T05:16:21;6.9625;;;2.675;;
85051;SDS011;75382;46.706;12.340;2024-03-22T05:17:21;6.45;;;2.1624999999999996;;
85051;SDS011;75382;46.706;12.340;2024-03-22T05:18:21;7.3125;;;2.3;;